Flight Track Log - Related Links

Times and Time Zones

All times are in EDT time to prevent confusion due to time zone crossing. See the XOJ578 flight status page for this flight to view local times or setup timezone preferences in your user account.

Time Position Orientation Groundspeed Altitude Reporting Facility
EDT Latitude Longitude Course Direction KTS MPH feet Rate Location/Type
Sun 12:49:07 PM 40.8333 -74.1000 264° West 156 180 1,500  Level New York TRACON
Sun 12:51:26 PM 40.8206 -74.2564 264° West 200 230 5,000 2,080 Climbing New York Center
Sun 12:52:26 PM 40.8222 -74.3414 272° West 234 269 8,400 2,926 Climbing New York Center
Sun 12:53:27 PM 40.8250 -74.4511 272° West 265 305 10,900 2,750 Climbing New York Center
Sun 12:54:26 PM 40.8406 -74.5536 281° West 306 352 13,900 2,975 Climbing New York Center
Sun 12:55:26 PM 40.8553 -74.6778 279° West 317 365 16,800 2,350 Climbing New York Center
Sun 12:56:26 PM 40.8603 -74.7822 274° West 317 365 18,600 1,884 Climbing New York Center
Sun 12:57:27 PM 40.8458 -74.8967 261° West 311 358 20,600 2,000 Climbing New York Center
Sun 12:58:26 PM 40.8308 -75.0219 261° West 324 373 22,600 1,966 Climbing New York Center
Sun 12:59:26 PM 40.8158 -75.1497 261° West 347 399 24,500 1,934 Climbing New York Center
Sun 01:00:27 PM 40.7936 -75.2936 259° West 367 422 26,500 1,983 Climbing New York Center
Sun 01:01:27 PM 40.7761 -75.4269 260° West 372 428 28,500 1,729 Climbing New York Center
Sun 01:02:25 PM 40.7561 -75.5625 259° West 372 428 29,900 1,271 Climbing New York Center
Sun 01:03:25 PM 40.7378 -75.7008 260° West 372 428 31,000 992 Climbing New York Center
Sun 01:04:26 PM 40.7242 -75.8286 262° West 392 451 31,900 992 Climbing New York Center
Sun 01:05:26 PM 40.6964 -75.9881 257° West 399 459 33,000 1,339 Climbing New York Center
Sun 01:06:27 PM 40.6792 -76.1400 262° West 414 476 34,600 1,714 Climbing New York Center
Sun 01:07:25 PM 40.6706 -76.2844 266° West 408 470 36,400 1,613 Climbing New York Center
Sun 01:08:26 PM 40.6908 -76.4228 281° West 396 456 37,800 1,091 Climbing New York Center
Sun 01:09:26 PM 40.7094 -76.5586 280° West 391 450 38,600 800 Climbing New York Center
Sun 01:10:26 PM 40.7317 -76.7003 282° West 391 450 39,400 650 Climbing New York Center
Sun 01:11:26 PM 40.7517 -76.8389 281° West 391 450 39,900 650 Climbing New York Center
Sun 01:12:26 PM 40.7714 -76.9806 280° West 396 456 40,700 700 Climbing New York Center
Sun 01:13:26 PM 40.7931 -77.1222 281° West 396 456 41,300 600 Climbing New York Center
Sun 01:14:26 PM 40.8128 -77.2583 281° West 396 456 41,900 446 Climbing New York Center
Sun 01:15:27 PM 40.8325 -77.3919 281° West 391 450 42,200 298 Climbing New York Center
Sun 01:16:27 PM 40.8517 -77.5311 280° West 391 450 42,500 350 Climbing New York Center
Sun 01:17:44 PM 40.8778 -77.7217 280° West 409 471 43,000 221 Climbing Cleveland Center
Sun 01:18:43 PM 40.8978 -77.8636 281° West 409 471 43,000  Level Cleveland Center
Sun 01:19:43 PM 40.9158 -78.0056 280° West 409 471 43,000  Level Cleveland Center
Sun 01:20:43 PM 40.9356 -78.1533 280° West 409 471 43,000  Level Cleveland Center
Sun 01:21:43 PM 40.9575 -78.3011 281° West 409 471 43,000  Level Cleveland Center
Sun 01:22:43 PM 40.9728 -78.4464 278° West 409 471 43,000  Level Cleveland Center
Sun 01:23:43 PM 40.9922 -78.5942 280° West 409 471 43,000  Level Cleveland Center
Sun 01:24:44 PM 41.0092 -78.7422 279° West 409 471 43,000  Level Cleveland Center
Sun 01:25:43 PM 41.0283 -78.8931 280° West 409 471 43,000  Level Cleveland Center
Sun 01:26:43 PM 41.0450 -79.0414 279° West 415 478 43,000  Level Cleveland Center
Sun 01:27:44 PM 41.0614 -79.1953 278° West 420 483 43,000  Level Cleveland Center
Sun 01:28:43 PM 41.0800 -79.3464 279° West 420 483 43,000  Level Cleveland Center
Sun 01:29:43 PM 41.0961 -79.4947 278° West 420 483 43,000  Level Cleveland Center
Sun 01:30:44 PM 41.1119 -79.6461 278° West 420 483 43,000  Level Cleveland Center
Sun 01:31:43 PM 41.1275 -79.7975 278° West 420 483 43,000  Level Cleveland Center
Sun 01:32:43 PM 41.1411 -79.9353 278° West 427 491 43,000  Level Cleveland Center
Sun 01:33:43 PM 41.1628 -80.0978 280° West 421 484 43,000  Level Cleveland Center
Sun 01:34:43 PM 41.1778 -80.2467 278° West 421 484 43,000  Level Cleveland Center
Sun 01:35:43 PM 41.1906 -80.3983 276° West 416 479 43,000  Level Cleveland Center
Sun 01:36:44 PM 41.2053 -80.5500 277° West 416 479 43,000  Level Cleveland Center
Sun 01:37:43 PM 41.2200 -80.6992 278° West 416 479 43,000  Level Cleveland Center
Sun 01:38:44 PM 41.2342 -80.8481 277° West 416 479 43,000  Level Cleveland Center
Sun 01:39:44 PM 41.2506 -81.0003 278° West 416 479 43,000  Level Cleveland Center
Sun 01:40:43 PM 41.2625 -81.1328 277° West 411 473 43,000  Level Cleveland Center
Sun 01:41:43 PM 41.2761 -81.2794 277° West 411 473 43,000  Level Cleveland Center
Sun 01:42:44 PM 41.2939 -81.4261 279° West 400 460 43,000  Level Cleveland Center
Sun 01:43:44 PM 41.3075 -81.5728 277° West 400 460 43,000  Level Cleveland Center
Sun 01:44:44 PM 41.3228 -81.7222 278° West 405 466 43,000  Level Cleveland Center
Sun 01:45:44 PM 41.3336 -81.8661 276° West 405 466 43,000  Level Cleveland Center
Sun 01:46:44 PM 41.3486 -82.0158 278° West 405 466 43,000  Level Cleveland Center
Sun 01:47:44 PM 41.3569 -82.1683 274° West 410 472 43,000  Level Cleveland Center
Sun 01:48:44 PM 41.3778 -82.3156 281° West 410 472 43,000  Level Cleveland Center
Sun 01:49:44 PM 41.3964 -82.4597 280° West 410 472 43,000  Level Cleveland Center
Sun 01:50:44 PM 41.4147 -82.6100 279° West 410 472 43,000  Level Cleveland Center
Sun 01:51:44 PM 41.4181 -82.7567 272° West 405 466 43,000  Level Cleveland Center
Sun 01:52:44 PM 41.4236 -82.9036 273° West 405 466 43,000  Level Cleveland Center
Sun 01:53:44 PM 41.4267 -83.0533 272° West 405 466 43,000  Level Cleveland Center
Sun 01:54:44 PM 41.4278 -83.1975 271° West 399 459 43,000  Level Cleveland Center
Sun 01:55:44 PM 41.4283 -83.3417 270° West 399 459 43,000  Level Cleveland Center
Sun 01:56:44 PM 41.4311 -83.4883 271° West 399 459 43,000  Level Cleveland Center
Sun 01:57:44 PM 41.4356 -83.6328 272° West 399 459 43,000  Level Cleveland Center
Sun 01:58:44 PM 41.4400 -83.7797 272° West 404 465 43,000  Level Cleveland Center
Sun 01:59:44 PM 41.4464 -83.9214 273° West 404 465 43,000  Level Cleveland Center
Sun 02:00:38 PM 41.4569 -84.0522 276° West 393 452 43,000  Level Chicago Center
Sun 02:01:40 PM 41.4631 -84.1981 273° West 395 455 43,000  Level Chicago Center
Sun 02:02:42 PM 41.4692 -84.3444 273° West 396 456 43,000  Level Chicago Center
Sun 02:03:44 PM 41.4764 -84.5197 273° West 394 453 43,000  Level Chicago Center
Sun 02:04:46 PM 41.4814 -84.6656 273° West 395 455 43,000  Level Chicago Center
Sun 02:05:48 PM 41.4872 -84.8094 273° West 393 452 43,000  Level Chicago Center
Sun 02:06:50 PM 41.4922 -84.9550 273° West 392 451 43,000  Level Chicago Center
Sun 02:07:52 PM 41.4969 -85.0989 273° West 389 448 43,000  Level Chicago Center
Sun 02:08:54 PM 41.5014 -85.2456 272° West 393 452 43,000  Level Chicago Center
Sun 02:09:56 PM 41.5053 -85.3922 272° West 391 450 43,000  Level Chicago Center
Sun 02:10:58 PM 41.5103 -85.5436 273° West 399 459 43,000  Level Chicago Center
Sun 02:12:00 PM 41.5164 -85.7186 273° West 393 452 43,000  Level Chicago Center
Sun 02:13:02 PM 41.5203 -85.8653 272° West 395 455 43,000  Level Chicago Center
Sun 02:14:04 PM 41.5239 -86.0108 272° West 398 458 43,000  Level Chicago Center
Sun 02:15:06 PM 41.5269 -86.1572 272° West 398 458 43,000  Level Chicago Center
Sun 02:16:08 PM 41.5303 -86.3047 272° West 400 460 43,000  Level Chicago Center
Sun 02:17:10 PM 41.5319 -86.4511 271° West 396 456 43,000  Level Chicago Center
Sun 02:18:12 PM 41.5342 -86.5992 271° West 398 458 43,000  Level Chicago Center
Sun 02:19:14 PM 41.5369 -86.7700 271° West 390 449 43,000  Level Chicago Center
Sun 02:20:16 PM 41.5389 -86.9172 271° West 396 456 43,000  Level Chicago Center
Sun 02:21:18 PM 41.5406 -87.0636 271° West 396 456 43,000  Level Chicago Center
Sun 02:22:20 PM 41.5428 -87.2106 271° West 398 458 43,000  Level Chicago Center
Sun 02:23:22 PM 41.5442 -87.3869 271° West 399 459 43,000  Level Chicago Center
Sun 02:24:24 PM 41.5444 -87.5331 270° West 397 457 43,000  Level Chicago Center
Sun 02:25:26 PM 41.5450 -87.6806 270° West 398 458 43,000  Level Chicago Center
Sun 02:26:28 PM 41.5461 -87.8278 271° West 401 461 43,000  Level Chicago Center
Sun 02:27:30 PM 41.5475 -88.0056 271° West 408 470 43,000  Level Chicago Center
Sun 02:28:32 PM 41.5478 -88.1533 270° West 412 474 43,000  Level Chicago Center
Sun 02:29:35 PM 41.5475 -88.3036 270° West 413 475 43,000  Level Chicago Center
Sun 02:30:37 PM 41.5481 -88.4533 270° West 409 471 43,000  Level Chicago Center
Sun 02:31:39 PM 41.5475 -88.6331 270° West 409 471 43,000  Level Chicago Center
Sun 02:32:41 PM 41.5486 -88.7858 271° West 414 476 43,000  Level Chicago Center
Sun 02:33:43 PM 41.5489 -88.9367 270° West 411 473 43,000  Level Chicago Center
Sun 02:34:45 PM 41.5481 -89.0897 270° West 415 478 43,000  Level Chicago Center
Sun 02:35:47 PM 41.5489 -89.2419 270° West 414 476 43,000  Level Chicago Center
Sun 02:36:49 PM 41.5500 -89.4217 271° West 409 471 43,000  Level Chicago Center
Sun 02:37:51 PM 41.5497 -89.5714 270° West 409 471 43,000  Level Chicago Center
Sun 02:38:53 PM 41.5483 -89.7256 269° West 414 476 43,000  Level Chicago Center
Sun 02:39:55 PM 41.5464 -89.8775 269° West 413 475 43,000  Level Chicago Center
Sun 02:40:57 PM 41.5456 -90.0281 270° West 410 472 43,000  Level Chicago Center
Sun 02:41:59 PM 41.5436 -90.1797 269° West 410 472 43,000  Level Chicago Center
Sun 02:43:03 PM 41.5419 -90.3636 269° West 414 476 43,000  Level Chicago Center
Sun 02:44:04 PM 41.5392 -90.5144 269° West 410 472 43,000  Level Chicago Center
Sun 02:45:06 PM 41.5372 -90.6608 269° West 412 474 43,000  Level Chicago Center
Sun 02:46:08 PM 41.5342 -90.8136 269° West 415 478 43,000  Level Chicago Center
Sun 02:47:10 PM 41.5317 -90.9978 269° West 417 480 43,000  Level Chicago Center
Sun 02:48:12 PM 41.5286 -91.1517 269° West 417 480 43,000  Level Chicago Center
Sun 02:49:14 PM 41.5256 -91.3039 269° West 414 476 43,000  Level Chicago Center
Sun 02:50:16 PM 41.5222 -91.4567 268° West 413 475 43,000  Level Chicago Center
Sun 02:51:18 PM 41.5203 -91.6083 269° West 411 473 43,000  Level Chicago Center
Sun 02:52:20 PM 41.5031 -91.7853 263° West 404 465 43,000  Level Chicago Center
Sun 02:53:22 PM 41.4897 -91.9372 263° West 410 472 43,000  Level Chicago Center
Sun 02:54:24 PM 41.4747 -92.0850 262° West 405 466 43,000 -48 Level Chicago Center
Sun 02:55:26 PM 41.4611 -92.2347 263° West 408 470 42,900 -823 Descending Chicago Center
Sun 02:56:28 PM 41.4558 -92.3811 267° West 400 460 41,300 -1,536 Descending Chicago Center
Sun 02:57:31 PM 41.4672 -92.5256 276° West 381 438 39,700 -1,536 Descending Chicago Center
Sun 02:58:33 PM 41.4808 -92.6589 278° West 369 425 38,100 -1,030 Descending Chicago Center
Sun 02:59:10 PM 41.4647 -92.7556 257° West 348 400 38,000 -61 Descending Minneapolis Center
Sun 03:00:12 PM 41.4375 -92.8858 254° West 364 419 38,000  Level Minneapolis Center
Sun 03:01:29 PM 41.4186 -93.0214 260° West 372 428 38,000  Level Minneapolis Center
Sun 03:02:32 PM 41.3903 -93.2211 259° West 392 451 38,000  Level Minneapolis Center
Sun 03:03:34 PM 41.3689 -93.3658 259° West 401 461 38,000  Level Minneapolis Center
Sun 03:04:36 PM 41.3478 -93.5094 259° West 400 460 38,000  Level Minneapolis Center
Sun 03:05:38 PM 41.3286 -93.6447 259° West 386 444 38,000  Level Minneapolis Center
Sun 03:06:40 PM 41.3075 -93.7853 259° West 388 447 38,000  Level Minneapolis Center
Sun 03:07:42 PM 41.2819 -93.9544 259° West 392 451 38,000  Level Minneapolis Center
Sun 03:08:57 PM 41.2528 -94.1253 257° West 395 455 38,000  Level Minneapolis Center
Sun 03:09:59 PM 41.2336 -94.2617 259° West 390 449 38,000  Level Minneapolis Center
Sun 03:11:01 PM 41.2131 -94.4011 259° West 386 444 38,000  Level Minneapolis Center
Sun 03:12:03 PM 41.1903 -94.5419 258° West 388 447 38,000  Level Minneapolis Center
Sun 03:13:05 PM 41.1633 -94.7094 258° West 388 447 38,000  Level Minneapolis Center
Sun 03:14:07 PM 41.1403 -94.8500 258° West 390 449 38,000  Level Minneapolis Center
Sun 03:15:09 PM 41.1178 -94.9908 258° West 390 449 38,000  Level Minneapolis Center
Sun 03:16:11 PM 41.0942 -95.1317 258° West 391 450 38,000  Level Minneapolis Center
Sun 03:17:13 PM 41.0700 -95.2731 257° West 392 451 38,000  Level Minneapolis Center
Sun 03:18:15 PM 41.0458 -95.4150 257° West 393 452 38,000  Level Minneapolis Center
Sun 03:19:17 PM 41.0169 -95.5867 257° West 396 456 38,000  Level Minneapolis Center
Sun 03:20:19 PM 40.9925 -95.7300 257° West 396 456 38,000  Level Minneapolis Center
Sun 03:21:21 PM 40.9675 -95.8753 257° West 400 460 38,000  Level Minneapolis Center
Sun 03:22:23 PM 40.9431 -96.0214 258° West 403 464 38,000  Level Minneapolis Center
Sun 03:23:25 PM 40.9172 -96.1672 257° West 404 465 38,000  Level Minneapolis Center
Sun 03:24:27 PM 40.8922 -96.3139 257° West 406 467 38,000  Level Minneapolis Center
Sun 03:25:29 PM 40.8667 -96.4611 257° West 408 470 38,000  Level Minneapolis Center
Sun 03:26:31 PM 40.8411 -96.6061 257° West 407 468 38,000  Level Minneapolis Center
Sun 03:27:33 PM 40.8083 -96.7806 256° West 406 467 38,000  Level Minneapolis Center
Sun 03:28:35 PM 40.7831 -96.9269 257° West 408 470 38,000  Level Minneapolis Center
Sun 03:29:37 PM 40.7561 -97.0714 256° West 406 467 38,000  Level Minneapolis Center
Sun 03:30:39 PM 40.7303 -97.2144 257° West 404 465 38,000  Level Minneapolis Center
Sun 03:31:41 PM 40.7033 -97.3611 256° West 404 465 38,000  Level Minneapolis Center
Sun 03:32:43 PM 40.6764 -97.5036 256° West 402 463 38,000  Level Minneapolis Center
Sun 03:33:45 PM 40.6494 -97.6456 256° West 400 460 38,000  Level Minneapolis Center
Sun 03:34:47 PM 40.6225 -97.7881 256° West 400 460 38,000 195 Level Minneapolis Center
Sun 03:35:48 PM 40.5900 -97.9594 256° West 401 461 38,400 732 Climbing Minneapolis Center
Sun 03:36:50 PM 40.5631 -98.1011 256° West 399 459 39,500 1,016 Climbing Minneapolis Center
Sun 03:37:52 PM 40.5364 -98.2419 256° West 397 457 40,500 968 Climbing Minneapolis Center
Sun 03:38:54 PM 40.5089 -98.3825 256° West 396 456 41,500 968 Climbing Minneapolis Center
Sun 03:39:56 PM 40.4822 -98.5200 256° West 389 448 42,500 732 Climbing Minneapolis Center
Sun 03:40:57 PM 40.4556 -98.6547 255° West 383 441 43,000 244 Climbing Minneapolis Center
Sun 03:41:59 PM 40.4275 -98.7936 255° West 388 447 43,000  Level Minneapolis Center
Sun 03:43:01 PM 40.3997 -98.9367 256° West 398 458 43,000  Level Minneapolis Center
Sun 03:44:03 PM 40.3647 -99.1058 255° West 399 459 43,000  Level Minneapolis Center
Sun 03:44:52 PM 40.3422 -99.2189 255° West 398 458 43,000  Level Denver Center
Sun 03:46:06 PM 40.3136 -99.3594 255° West 399 459 43,000  Level Denver Center
Sun 03:47:08 PM 40.2786 -99.5269 255° West 396 456 43,000  Level Denver Center
Sun 03:48:10 PM 40.2503 -99.6672 255° West 398 458 43,000  Level Denver Center
Sun 03:49:11 PM 40.2211 -99.8064 255° West 396 456 43,000  Level Denver Center
Sun 03:50:13 PM 40.1889 -99.9614 255° West 396 456 43,000  Level Denver Center
Sun 03:51:15 PM 40.1603 -100.0928 254° West 393 452 43,000  Level Denver Center
Sun 03:52:17 PM 40.1269 -100.2517 255° West 402 463 43,000  Level Denver Center
Sun 03:53:19 PM 40.0981 -100.3839 254° West 397 457 43,000  Level Denver Center
Sun 03:54:20 PM 40.0697 -100.5175 255° West 398 458 43,000  Level Denver Center
Sun 03:55:22 PM 40.0356 -100.6731 254° West 397 457 43,000  Level Denver Center
Sun 03:56:24 PM 40.0064 -100.8083 254° West 403 464 43,000  Level Denver Center
Sun 03:57:26 PM 39.9725 -100.9647 254° West 401 461 43,000  Level Denver Center
Sun 03:58:28 PM 39.9419 -101.0978 253° West 399 459 43,000  Level Denver Center
Sun 03:59:29 PM 39.9128 -101.2325 254° West 402 463 43,000  Level Denver Center
Sun 04:00:43 PM 39.8778 -101.3883 254° West 401 461 43,000  Level Denver Center
Sun 04:01:45 PM 39.8369 -101.5661 253° West 402 463 43,000  Level Denver Center
Sun 04:02:47 PM 39.8064 -101.7014 254° West 405 466 43,000  Level Denver Center
Sun 04:03:49 PM 39.7764 -101.8350 254° West 403 464 43,000  Level Denver Center
Sun 04:04:50 PM 39.7403 -101.9931 253° West 408 470 43,000  Level Denver Center
Sun 04:05:52 PM 39.7092 -102.1267 253° West 405 466 43,000  Level Denver Center
Sun 04:06:54 PM 39.6728 -102.2825 253° West 403 464 43,000  Level Denver Center
Sun 04:07:56 PM 39.6408 -102.4169 253° West 407 468 43,000  Level Denver Center
Sun 04:08:57 PM 39.6050 -102.5703 253° West 406 467 43,000  Level Denver Center
Sun 04:09:59 PM 39.5722 -102.7097 253° West 406 467 43,000  Level Denver Center
Sun 04:11:01 PM 39.5378 -102.8483 252° West 405 466 43,000  Level Denver Center
Sun 04:12:03 PM 39.5044 -102.9886 253° West 408 470 43,000  Level Denver Center
Sun 04:13:05 PM 39.4719 -103.1275 253° West 404 465 43,000  Level Denver Center
Sun 04:14:06 PM 39.4372 -103.2664 252° West 407 468 43,000  Level Denver Center
Sun 04:15:08 PM 39.3953 -103.4331 252° West 407 468 43,000  Level Denver Center
Sun 04:16:10 PM 39.3614 -103.5742 253° West 410 472 43,000  Level Denver Center
Sun 04:17:12 PM 39.3256 -103.7153 252° West 412 474 43,000  Level Denver Center
Sun 04:18:13 PM 39.2908 -103.8569 252° West 414 476 43,000  Level Denver Center
Sun 04:19:15 PM 39.2550 -103.9975 252° West 414 476 43,000 145 Level Denver Center
Sun 04:20:17 PM 39.2186 -104.1406 252° West 418 481 43,300 919 Climbing Denver Center
Sun 04:21:19 PM 39.1839 -104.2792 252° West 409 471 44,900 823 Climbing Denver Center
Sun 04:22:21 PM 39.1500 -104.4125 252° West 393 452 45,000 49 Climbing Denver Center
Sun 04:23:22 PM 39.1142 -104.5503 252° West 400 460 45,000  Level Denver Center
Sun 04:24:24 PM 39.0703 -104.7200 252° West 413 475 45,000  Level Denver Center
Sun 04:25:26 PM 39.0350 -104.8589 252° West 409 471 45,000  Level Denver Center
Sun 04:26:28 PM 38.9975 -105.0006 251° West 413 475 45,000  Level Denver Center
Sun 04:27:30 PM 38.9608 -105.1400 251° West 414 476 45,000  Level Denver Center
Sun 04:28:32 PM 38.9242 -105.2792 251° West 412 474 45,000  Level Denver Center
Sun 04:29:34 PM 38.8869 -105.4175 251° West 410 472 45,000  Level Denver Center
Sun 04:30:36 PM 38.8436 -105.5839 252° West 410 472 45,000  Level Denver Center
Sun 04:31:38 PM 38.8056 -105.7219 251° West 410 472 45,000  Level Denver Center
Sun 04:32:40 PM 38.7692 -105.8592 251° West 407 468 45,000  Level Denver Center
Sun 04:33:42 PM 38.7317 -105.9972 251° West 410 472 45,000  Level Denver Center
Sun 04:34:44 PM 38.6944 -106.1336 251° West 407 468 45,000  Level Denver Center
Sun 04:35:46 PM 38.6550 -106.2747 250° West 410 472 45,000  Level Denver Center
Sun 04:36:48 PM 38.6169 -106.4119 250° West 410 472 45,000  Level Denver Center
Sun 04:37:50 PM 38.5783 -106.5506 250° West 411 473 45,000  Level Denver Center
Sun 04:38:52 PM 38.5400 -106.6889 251° West 410 472 45,000  Level Denver Center
Sun 04:39:54 PM 38.4944 -106.8503 250° West 401 461 45,000  Level Denver Center
Sun 04:40:56 PM 38.4569 -106.9819 250° West 396 456 45,000  Level Denver Center
Sun 04:41:58 PM 38.4192 -107.1133 250° West 392 451 45,000  Level Denver Center
Sun 04:43:00 PM 38.3797 -107.2561 251° West 392 451 45,000  Level Denver Center
Sun 04:44:02 PM 38.3431 -107.3831 250° West 397 457 45,000  Level Denver Center
Sun 04:45:04 PM 38.3308 -107.5400 264° West 403 464 45,000 48 Level Denver Center
Sun 04:46:06 PM 38.3261 -107.6789 268° West 405 466 45,100  Climbing Denver Center
Sun 04:47:08 PM 38.3192 -107.8439 267° West 414 476 45,000 -48 Descending Denver Center
Sun 04:48:10 PM 38.3131 -107.9839 267° West 415 478 45,000  Level Denver Center
Sun 04:49:12 PM 38.3081 -108.1256 267° West 416 479 45,000  Level Denver Center
Sun 04:50:14 PM 38.3028 -108.2906 268° West 417 480 45,000  Level Denver Center
Sun 04:51:16 PM 38.2906 -108.4297 264° West 419 482 45,000  Level Denver Center
Sun 04:52:18 PM 38.2256 -108.5697 239° Southwest 410 472 45,000  Level Denver Center
Sun 04:53:20 PM 38.1628 -108.6869 236° Southwest 416 479 45,000  Level Denver Center
Sun 04:54:22 PM 38.0906 -108.8197 235° Southwest 410 472 45,000  Level Denver Center
Sun 04:55:24 PM 38.0275 -108.9339 235° Southwest 408 470 45,000  Level Denver Center
Sun 04:56:26 PM 37.9553 -109.0689 236° Southwest 413 475 45,000  Level Denver Center
Sun 04:57:40 PM 37.8931 -109.1842 236° Southwest 414 476 45,000  Level Denver Center
Sun 04:58:43 PM 37.8092 -109.3353 235° Southwest 412 474 45,000  Level Denver Center
Sun 04:59:45 PM 37.7469 -109.4489 235° Southwest 412 474 45,000  Level Denver Center
Sun 05:00:47 PM 37.6744 -109.5797 235° Southwest 409 471 45,000  Level Denver Center
Sun 05:01:49 PM 37.6117 -109.6931 235° Southwest 412 474 45,000  Level Denver Center
Sun 05:03:03 PM 37.5386 -109.8253 235° Southwest 413 475 45,000  Level Denver Center
Sun 05:04:05 PM 37.4556 -109.9739 235° Southwest 411 473 45,000  Level Denver Center
Sun 05:05:07 PM 37.4036 -110.0681 235° Southwest 413 475 45,000  Level Denver Center
Sun 05:06:21 PM 37.3269 -110.2039 235° Southwest 414 476 45,000  Level Denver Center
Sun 05:07:24 PM 37.2472 -110.3433 234° Southwest 409 471 45,000  Level Denver Center
Sun 05:08:26 PM 37.1669 -110.4853 235° Southwest 416 479 45,000  Level Denver Center
Sun 05:09:28 PM 37.1008 -110.6011 234° Southwest 412 474 45,000  Level Denver Center
Sun 05:10:30 PM 37.0350 -110.7172 235° Southwest 408 470 45,000  Level Denver Center
Sun 05:11:32 PM 36.9678 -110.8339 234° Southwest 412 474 45,000  Level Denver Center
Sun 05:12:34 PM 36.9011 -110.9514 235° Southwest 414 476 45,000  Level Denver Center
Sun 05:13:36 PM 36.8347 -111.0650 234° Southwest 407 468 45,000  Level Denver Center
Sun 05:14:38 PM 36.7686 -111.1811 235° Southwest 408 470 45,000  Level Denver Center
Sun 05:15:40 PM 36.6867 -111.3214 234° Southwest 414 476 45,000  Level Denver Center
Sun 05:16:42 PM 36.6181 -111.4381 234° Southwest 417 480 45,000  Level Denver Center
Sun 05:17:44 PM 36.5511 -111.5531 234° Southwest 412 474 45,000  Level Denver Center
Sun 05:18:46 PM 36.4847 -111.6672 234° Southwest 409 471 45,000  Level Denver Center
Sun 05:19:48 PM 36.4164 -111.7833 234° Southwest 412 474 45,000  Level Denver Center
Sun 05:20:47 PM 36.3467 -111.8972 233° Southwest 413 475 45,000  Level Los Angeles Center
Sun 05:21:49 PM 36.2794 -112.0128 234° Southwest 413 475 45,000  Level Los Angeles Center
Sun 05:22:51 PM 36.2108 -112.1258 233° Southwest 411 473 45,000  Level Los Angeles Center
Sun 05:23:53 PM 36.1428 -112.2433 234° Southwest 412 474 45,000  Level Los Angeles Center
Sun 05:24:55 PM 36.0619 -112.3761 233° Southwest 408 470 45,000  Level Los Angeles Center
Sun 05:25:57 PM 35.9942 -112.4900 234° Southwest 410 472 45,000  Level Los Angeles Center
Sun 05:27:00 PM 35.9247 -112.6042 233° Southwest 415 478 45,000  Level Los Angeles Center
Sun 05:28:01 PM 35.8567 -112.7172 233° Southwest 416 479 45,000  Level Los Angeles Center
Sun 05:29:03 PM 35.7886 -112.8303 233° Southwest 415 478 45,000  Level Los Angeles Center
Sun 05:30:06 PM 35.7075 -112.9656 234° Southwest 415 478 45,000  Level Los Angeles Center
Sun 05:31:08 PM 35.6378 -113.0764 232° Southwest 416 479 45,000  Level Los Angeles Center
Sun 05:32:10 PM 35.5681 -113.1894 233° Southwest 414 476 45,000 -97 Level Los Angeles Center
Sun 05:33:12 PM 35.5028 -113.3014 234° Southwest 419 482 44,800 -484 Descending Los Angeles Center
Sun 05:34:14 PM 35.4231 -113.4272 232° Southwest 400 460 44,000 -823 Descending Los Angeles Center
Sun 05:35:16 PM 35.3578 -113.5314 232° Southwest 391 450 43,100 -1,016 Descending Los Angeles Center
Sun 05:36:18 PM 35.2936 -113.6347 233° Southwest 386 444 41,900 -1,306 Descending Los Angeles Center
Sun 05:37:20 PM 35.2289 -113.7406 233° Southwest 390 449 40,400 -1,597 Descending Los Angeles Center
Sun 05:38:22 PM 35.1494 -113.8664 232° Southwest 392 451 38,600 -1,161 Descending Los Angeles Center
Sun 05:39:24 PM 35.0886 -113.9625 232° Southwest 394 453 38,000 -290 Descending Los Angeles Center
Sun 05:40:26 PM 35.0083 -114.0908 233° Southwest 395 455 38,000  Level Los Angeles Center
Sun 05:41:29 PM 34.9397 -114.1986 232° Southwest 399 459 38,000 -480 Level Los Angeles Center
Sun 05:42:31 PM 34.8906 -114.3214 244° Southwest 409 471 37,000 -1,258 Descending Los Angeles Center
Sun 05:43:33 PM 34.8819 -114.4608 266° West 410 472 35,400 -1,452 Descending Los Angeles Center
Sun 05:44:35 PM 34.8775 -114.6003 268° West 411 473 34,000 -677 Descending Los Angeles Center
Sun 05:45:37 PM 34.8731 -114.7406 268° West 415 478 34,000  Level Los Angeles Center
Sun 05:46:39 PM 34.8678 -114.8856 268° West 426 490 34,000  Level Los Angeles Center
Sun 05:47:41 PM 34.8608 -115.0586 267° West 426 490 34,000  Level Los Angeles Center
Sun 05:48:43 PM 34.8553 -115.2006 267° West 422 486 34,000  Level Los Angeles Center
Sun 05:49:45 PM 34.8489 -115.3403 267° West 416 479 34,000  Level Los Angeles Center
Sun 05:50:47 PM 34.8431 -115.4831 267° West 419 482 34,000  Level Los Angeles Center
Sun 05:51:49 PM 34.8372 -115.6269 267° West 422 486 34,000  Level Los Angeles Center
Sun 05:52:52 PM 34.8308 -115.7694 267° West 424 488 34,000 -48 Level Los Angeles Center
Sun 05:53:54 PM 34.8256 -115.9094 267° West 418 481 33,900 -1,452 Descending Los Angeles Center
Sun 05:54:56 PM 34.8158 -116.0792 266° West 419 482 31,000 -2,952 Descending Los Angeles Center
Sun 05:55:58 PM 34.8067 -116.2197 265° West 419 482 27,800 -3,387 Descending Los Angeles Center
Sun 05:57:00 PM 34.8042 -116.3531 269° West 404 465 24,000 -3,242 Descending Los Angeles Center
Sun 05:58:02 PM 34.7972 -116.4825 266° West 390 449 21,100 -1,935 Descending Los Angeles Center
Sun 05:59:04 PM 34.7842 -116.6050 263° West 370 426 20,000 -532 Descending Los Angeles Center
Sun 06:00:06 PM 34.7719 -116.7269 263° West 364 419 20,000  Level Los Angeles Center
Sun 06:01:08 PM 34.7567 -116.8742 263° West 365 420 20,000  Level Los Angeles Center
Sun 06:02:10 PM 34.7442 -116.9981 263° West 368 423 20,000  Level Los Angeles Center
Sun 06:03:13 PM 34.7311 -117.1214 263° West 368 423 20,000  Level Los Angeles Center
Sun 06:04:15 PM 34.7172 -117.2461 262° West 371 427 20,000  Level Los Angeles Center
Sun 06:05:17 PM 34.7047 -117.3719 263° West 372 428 20,000  Level Los Angeles Center
Sun 06:06:19 PM 34.6914 -117.4981 263° West 374 430 20,000 -726 Level Los Angeles Center
Sun 06:07:21 PM 34.6783 -117.6242 263° West 374 430 18,500 -2,112 Descending Los Angeles Center
Sun 06:08:24 PM 34.6558 -117.7783 260° West 383 441 15,600 -2,256 Descending Los Angeles Center
Sun 06:09:26 PM 34.6236 -117.8886 250° West 349 402 13,800 -1,645 Descending Los Angeles Center
Sun 06:10:28 PM 34.5939 -117.9906 251° West 323 372 12,200 -1,548 Descending Los Angeles Center
Sun 06:11:30 PM 34.5647 -118.0889 250° West 309 356 10,600 -1,548 Descending Los Angeles Center
Sun 06:12:32 PM 34.5344 -118.1878 250° West 286 329 9,000 -1,306 Descending Los Angeles Center
Sun 06:13:34 PM 34.5014 -118.2744 245° Southwest 285 328 7,900 -532 Descending Los Angeles Center
Sun 06:14:36 PM 34.4553 -118.3475 233° Southwest 274 315 7,900  Level Los Angeles Center
Sun 06:15:38 PM 34.3972 -118.4031 218° Southwest 279 321 7,900 -194 Level Los Angeles Center
Sun 06:16:40 PM 34.3125 -118.3617 158° South 271 312 7,500 -726 Descending Los Angeles Center
Sun 06:17:42 PM 34.2478 -118.3247 155° Southeast 262 302 6,400 -726 Descending Los Angeles Center
Sun 06:18:44 PM 34.1894 -118.2886 153° Southeast 250 288 6,000 -484 Descending Los Angeles Center
Sun 06:19:46 PM 34.1347 -118.3000 190° South 234 269 5,400 -1,113 Descending Los Angeles Center
Sun 06:20:48 PM 34.0989 -118.3450 226° Southwest 198 228 3,700 -1,403 Descending Los Angeles Center
Sun 06:21:50 PM 34.0681 -118.3844 227° Southwest 174 200 2,500 -1,306 Descending Los Angeles Center
Sun 06:22:52 PM 34.0422 -118.4225 231° Southwest 132 152 1,000 -1,113 Descending Los Angeles Center
Sun 06:23:54 PM 34.0208 -118.4514 228° Southwest 145 167 200 -774 Descending Los Angeles Center
Sun 06:25:00 PM 34.0158 -118.4513 244° Southwest  Level Estimated
Sun 06:32:00 PM 34.0158 -118.4513 244° Southwest  Level Estimated

Login

Don't have an account? Register now (free) for customized features, flight alerts, and more!